Time;durP1;ratioP1;P1;durP2;ratioP2;P2;SDS_P1;SDS_P2;PMS_P1;PMS_P2;Temp;Humidity;BMP_temperature;BMP_pressure;BME280_temperature;BME280_humidity;BME280_pressure;Samples;Min_cycle;Max_cycle;Signal;HPM_P1;HPM_P2
2021/04/06 00:00:44;;;;;;;42.23;18.60;;;;;;;;;;4432285;32;20267;-60
2021/04/06 00:03:13;;;;;;;33.30;17.00;;;;;;;;;;4430930;32;20248;-60
2021/04/06 00:05:40;;;;;;;53.93;24.03;;;;;;;;;;4432391;32;20360;-60
2021/04/06 00:08:07;;;;;;;45.73;22.40;;;;;;;;;;4432403;32;20213;-60
2021/04/06 00:10:39;;;;;;;44.57;22.93;;;;;;;;;;4432297;32;20243;-60
2021/04/06 00:13:05;;;;;;;52.83;23.67;;;;;;;;;;4432404;32;20394;-61
2021/04/06 00:15:31;;;;;;;40.90;21.30;;;;;;;;;;4431297;32;20240;-61
2021/04/06 00:18:00;;;;;;;24.07;13.97;;;;;;;;;;4432083;32;20704;-60
2021/04/06 00:20:28;;;;;;;27.77;13.80;;;;;;;;;;4432299;32;20270;-60
2021/04/06 00:22:56;;;;;;;68.70;29.03;;;;;;;;;;4430867;32;20347;-61
2021/04/06 00:25:26;;;;;;;81.67;32.17;;;;;;;;;;4432057;32;20235;-61
2021/04/06 00:27:52;;;;;;;55.10;25.30;;;;;;;;;;4432372;32;20212;-61
2021/04/06 00:30:32;;;;;;;51.90;23.37;;;;;;;;;;4432318;32;20367;-60
2021/04/06 00:33:14;;;;;;;55.87;24.40;;;;;;;;;;4430452;32;20350;-61
2021/04/06 00:35:41;;;;;;;58.23;27.40;;;;;;;;;;4432374;32;20212;-61
2021/04/06 00:38:12;;;;;;;74.57;33.13;;;;;;;;;;4432015;32;20691;-59
2021/04/06 00:40:43;;;;;;;31.57;18.90;;;;;;;;;;4431719;32;20679;-61
2021/04/06 00:43:09;;;;;;;60.63;26.37;;;;;;;;;;4432072;32;20240;-61
2021/04/06 00:45:42;;;;;;;53.03;23.97;;;;;;;;;;4432125;32;20267;-60
2021/04/06 00:48:13;;;;;;;65.33;29.03;;;;;;;;;;4431905;32;20248;-60
2021/04/06 00:50:44;;;;;;;51.70;24.30;;;;;;;;;;4432033;32;20563;-59
2021/04/06 00:53:10;;;;;;;33.80;17.47;;;;;;;;;;4432059;32;20302;-61
2021/04/06 00:55:38;;;;;;;20.20;13.03;;;;;;;;;;4430756;32;20719;-60
2021/04/06 00:58:11;;;;;;;45.73;21.57;;;;;;;;;;4420006;32;20304;-60
2021/04/06 01:00:37;;;;;;;49.80;25.17;;;;;;;;;;4416094;32;20213;-60
2021/04/06 01:03:10;;;;;;;51.97;26.90;;;;;;;;;;4415705;32;20251;-61
2021/04/06 01:05:58;;;;;;;39.03;21.37;;;;;;;;;;4426856;32;20470;-61
2021/04/06 01:08:28;;;;;;;38.37;20.57;;;;;;;;;;4431625;32;20396;-61
2021/04/06 01:10:54;;;;;;;37.17;21.87;;;;;;;;;;4431950;32;20697;-61
2021/04/06 01:13:22;;;;;;;43.37;21.90;;;;;;;;;;4431882;32;20265;-61
2021/04/06 01:15:47;;;;;;;39.60;22.30;;;;;;;;;;4432082;32;20293;-60
2021/04/06 01:18:13;;;;;;;35.17;18.43;;;;;;;;;;4431453;32;20401;-61
2021/04/06 01:20:39;;;;;;;27.57;13.83;;;;;;;;;;4432049;32;20356;-60
2021/04/06 01:23:13;;;;;;;25.93;11.73;;;;;;;;;;4431622;32;20349;-60
2021/04/06 01:25:48;;;;;;;20.13;10.33;;;;;;;;;;4431450;32;20738;-60
2021/04/06 01:28:14;;;;;;;21.03;11.53;;;;;;;;;;4431822;32;20731;-60
2021/04/06 01:30:47;;;;;;;25.53;14.20;;;;;;;;;;4424418;32;20285;-60
2021/04/06 01:33:14;;;;;;;18.83;13.33;;;;;;;;;;4416275;32;20412;-60
2021/04/06 01:35:47;;;;;;;25.47;15.73;;;;;;;;;;4416413;32;20201;-59
2021/04/06 01:38:14;;;;;;;30.07;17.20;;;;;;;;;;4416100;32;20225;-60
2021/04/06 01:40:42;;;;;;;27.13;17.27;;;;;;;;;;4415519;32;20292;-60
2021/04/06 01:43:10;;;;;;;26.97;16.37;;;;;;;;;;4418488;32;20304;-60
2021/04/06 01:45:44;;;;;;;22.10;12.00;;;;;;;;;;4431444;32;20275;-60
2021/04/06 01:48:19;;;;;;;19.27;11.67;;;;;;;;;;4431282;32;20642;-61
2021/04/06 01:50:50;;;;;;;21.60;10.70;;;;;;;;;;4431994;32;20311;-60
2021/04/06 01:53:17;;;;;;;20.57;10.90;;;;;;;;;;4433896;32;20251;-60
2021/04/06 01:55:48;;;;;;;18.90;11.87;;;;;;;;;;4434197;32;20201;-60
2021/04/06 01:58:15;;;;;;;18.83;11.23;;;;;;;;;;4434074;32;20288;-54
2021/04/06 02:03:32;;;;;;;20.30;11.27;;;;;;;;;;4434137;32;20341;-54
2021/04/06 02:05:59;;;;;;;18.67;11.23;;;;;;;;;;4434352;32;20237;-54
2021/04/06 02:08:27;;;;;;;16.80;10.87;;;;;;;;;;4434351;32;20475;-58
2021/04/06 02:10:53;;;;;;;17.50;9.97;;;;;;;;;;4433881;32;20201;-61
2021/04/06 02:13:22;;;;;;;18.83;9.57;;;;;;;;;;4434197;32;20275;-60
2021/04/06 02:16:14;;;;;;;26.40;13.00;;;;;;;;;;4433871;32;20201;-60
2021/04/06 02:18:39;;;;;;;21.10;12.33;;;;;;;;;;4431255;32;20872;-60
2021/04/06 02:21:06;;;;;;;20.17;11.53;;;;;;;;;;4432398;32;20379;-61
2021/04/06 02:23:50;;;;;;;23.40;12.47;;;;;;;;;;4433107;32;20220;-60
2021/04/06 02:26:15;;;;;;;19.60;9.87;;;;;;;;;;4416949;32;20219;-60
2021/04/06 02:28:41;;;;;;;21.77;10.70;;;;;;;;;;4418366;32;20216;-60
2021/04/06 02:31:08;;;;;;;18.70;10.93;;;;;;;;;;4426945;32;20280;-60
2021/04/06 02:33:35;;;;;;;17.57;10.97;;;;;;;;;;4433812;32;20343;-61
2021/04/06 02:36:02;;;;;;;29.63;16.40;;;;;;;;;;4433746;32;20209;-61
2021/04/06 02:38:30;;;;;;;18.97;12.53;;;;;;;;;;4433666;32;20274;-60
2021/04/06 02:41:29;;;;;;;20.07;11.13;;;;;;;;;;4433486;32;20197;-60
2021/04/06 02:43:55;;;;;;;16.33;10.87;;;;;;;;;;4424485;32;20225;-60
2021/04/06 02:46:24;;;;;;;22.03;12.47;;;;;;;;;;4433522;32;20448;-61
2021/04/06 02:48:50;;;;;;;19.27;13.00;;;;;;;;;;4433627;32;20300;-61
2021/04/06 02:51:17;;;;;;;17.57;13.37;;;;;;;;;;4433708;32;20276;-60
2021/04/06 02:53:46;;;;;;;26.03;13.10;;;;;;;;;;4433645;32;20250;-61
2021/04/06 02:56:27;;;;;;;19.73;12.53;;;;;;;;;;4433551;32;20227;-60
2021/04/06 02:58:53;;;;;;;28.33;19.57;;;;;;;;;;4433107;32;20224;-60
2021/04/06 03:01:18;;;;;;;20.10;16.50;;;;;;;;;;4432987;32;20252;-60
2021/04/06 03:03:44;;;;;;;27.80;19.83;;;;;;;;;;4432633;32;20256;-61
2021/04/06 03:06:13;;;;;;;27.20;17.40;;;;;;;;;;4433498;32;20268;-61
2021/04/06 03:08:41;;;;;;;23.67;17.10;;;;;;;;;;4433529;32;20228;-61
2021/04/06 03:11:11;;;;;;;23.73;14.93;;;;;;;;;;4431930;32;20229;-60
2021/04/06 03:13:42;;;;;;;26.60;15.87;;;;;;;;;;4433305;32;20312;-60
2021/04/06 03:16:09;;;;;;;32.53;17.90;;;;;;;;;;4433202;32;20205;-60
2021/04/06 03:18:40;;;;;;;34.40;20.20;;;;;;;;;;4432964;32;20239;-61
2021/04/06 03:21:08;;;;;;;45.57;19.27;;;;;;;;;;4433461;32;20280;-60
2021/04/06 03:23:34;;;;;;;41.40;17.90;;;;;;;;;;4433124;32;20813;-60
2021/04/06 03:26:01;;;;;;;31.30;16.23;;;;;;;;;;4432755;32;20375;-61
2021/04/06 03:28:36;;;;;;;21.23;14.83;;;;;;;;;;4432917;32;20292;-60
2021/04/06 03:31:13;;;;;;;25.10;14.10;;;;;;;;;;4432607;32;20204;-59
2021/04/06 03:33:40;;;;;;;16.47;11.43;;;;;;;;;;4433045;32;20346;-59
2021/04/06 03:36:06;;;;;;;24.70;13.83;;;;;;;;;;4432904;32;20193;-60
2021/04/06 03:38:32;;;;;;;17.13;11.73;;;;;;;;;;4432915;32;20212;-60
2021/04/06 03:40:57;;;;;;;10.77;8.13;;;;;;;;;;4431340;32;20684;-60
2021/04/06 03:43:23;;;;;;;15.30;9.60;;;;;;;;;;4432787;32;20315;-60
2021/04/06 03:45:54;;;;;;;12.67;9.23;;;;;;;;;;4432494;32;20577;-60
2021/04/06 03:48:21;;;;;;;13.63;9.80;;;;;;;;;;4431230;32;20659;-61
2021/04/06 03:50:46;;;;;;;12.73;8.90;;;;;;;;;;4432606;32;20193;-60
2021/04/06 03:53:12;;;;;;;21.03;9.93;;;;;;;;;;4432679;32;20251;-60
2021/04/06 03:55:40;;;;;;;21.60;12.07;;;;;;;;;;4432610;32;20693;-59
2021/04/06 03:58:18;;;;;;;22.90;12.50;;;;;;;;;;4432375;32;20725;-59
2021/04/06 04:00:43;;;;;;;23.57;11.63;;;;;;;;;;4432589;32;20276;-60
2021/04/06 04:03:09;;;;;;;22.87;14.20;;;;;;;;;;4432097;32;20303;-59
2021/04/06 04:05:34;;;;;;;23.67;14.17;;;;;;;;;;4432128;32;20549;-60
2021/04/06 04:08:00;;;;;;;24.67;14.77;;;;;;;;;;4431169;32;20630;-60
2021/04/06 04:10:27;;;;;;;25.50;15.00;;;;;;;;;;4432169;32;20272;-60
2021/04/06 04:12:53;;;;;;;28.17;16.50;;;;;;;;;;4432155;32;20259;-60
2021/04/06 04:15:18;;;;;;;47.33;17.93;;;;;;;;;;4432461;32;20347;-59
2021/04/06 04:17:51;;;;;;;26.57;16.67;;;;;;;;;;4431953;32;20319;-60
2021/04/06 04:20:18;;;;;;;30.33;17.63;;;;;;;;;;4432288;32;20189;-60
2021/04/06 04:22:44;;;;;;;29.97;14.63;;;;;;;;;;4431915;32;20789;-60
2021/04/06 04:25:12;;;;;;;39.07;16.10;;;;;;;;;;4431945;32;20279;-60
2021/04/06 04:27:39;;;;;;;29.47;18.63;;;;;;;;;;4432005;32;20321;-59
2021/04/06 04:30:06;;;;;;;30.23;19.23;;;;;;;;;;4432116;32;20295;-53
2021/04/06 04:32:32;;;;;;;32.23;18.90;;;;;;;;;;4430704;32;20216;-60
2021/04/06 04:34:57;;;;;;;39.93;22.37;;;;;;;;;;4431675;32;20340;-60
2021/04/06 04:37:23;;;;;;;35.30;22.93;;;;;;;;;;4432089;32;20221;-53
2021/04/06 04:39:48;;;;;;;46.37;23.20;;;;;;;;;;4432236;32;20284;-54
2021/04/06 04:42:14;;;;;;;51.87;29.43;;;;;;;;;;4431952;32;20303;-53
2021/04/06 04:44:40;;;;;;;54.10;33.20;;;;;;;;;;4431620;32;20617;-53
2021/04/06 04:47:05;;;;;;;62.40;35.60;;;;;;;;;;4430264;32;20630;-53
2021/04/06 04:49:31;;;;;;;60.90;35.37;;;;;;;;;;4430668;32;20307;-52
2021/04/06 04:51:57;;;;;;;58.63;34.47;;;;;;;;;;4431978;32;20293;-53
2021/04/06 04:54:22;;;;;;;67.20;39.10;;;;;;;;;;4431756;32;20291;-54
2021/04/06 04:56:48;;;;;;;87.17;42.97;;;;;;;;;;4431505;32;20247;-53
2021/04/06 04:59:13;;;;;;;80.73;44.63;;;;;;;;;;4431884;32;20394;-52
2021/04/06 05:01:39;;;;;;;83.00;47.23;;;;;;;;;;4431107;32;20265;-53
2021/04/06 05:04:04;;;;;;;79.03;42.83;;;;;;;;;;4431750;32;20259;-52
2021/04/06 05:06:30;;;;;;;79.00;41.63;;;;;;;;;;4431867;32;20264;-52
2021/04/06 05:08:55;;;;;;;79.10;44.17;;;;;;;;;;4431732;32;20312;-54
2021/04/06 05:11:21;;;;;;;63.23;40.70;;;;;;;;;;4431840;32;20650;-52
2021/04/06 05:13:47;;;;;;;68.43;44.83;;;;;;;;;;4431658;32;20310;-60
2021/04/06 05:16:13;;;;;;;89.23;49.57;;;;;;;;;;4430210;32;20334;-60
2021/04/06 05:18:39;;;;;;;96.10;59.57;;;;;;;;;;4431690;32;20535;-59
2021/04/06 05:21:05;;;;;;;89.20;54.80;;;;;;;;;;4431881;32;20652;-60
2021/04/06 05:23:30;;;;;;;89.77;52.10;;;;;;;;;;4430415;32;20306;-60
2021/04/06 05:25:55;;;;;;;68.27;41.83;;;;;;;;;;4417924;32;20703;-60
2021/04/06 05:28:21;;;;;;;83.00;42.90;;;;;;;;;;4417565;32;20259;-61
2021/04/06 05:30:47;;;;;;;77.17;44.47;;;;;;;;;;4425827;32;20706;-61
2021/04/06 05:33:12;;;;;;;90.30;57.57;;;;;;;;;;4434677;32;20288;-61
2021/04/06 05:35:38;;;;;;;90.67;52.43;;;;;;;;;;4434481;32;20295;-61
2021/04/06 05:38:04;;;;;;;81.97;53.73;;;;;;;;;;4433506;32;20299;-61
2021/04/06 05:40:29;;;;;;;91.70;55.93;;;;;;;;;;4434432;32;20504;-60
2021/04/06 05:42:57;;;;;;;94.70;57.47;;;;;;;;;;4434410;32;20722;-60
2021/04/06 05:45:24;;;;;;;102.87;61.90;;;;;;;;;;4434206;32;20236;-60
2021/04/06 05:47:52;;;;;;;104.73;59.53;;;;;;;;;;4434263;32;20282;-59
2021/04/06 05:50:18;;;;;;;109.63;62.60;;;;;;;;;;4434286;32;20354;-60
2021/04/06 05:52:44;;;;;;;108.70;65.03;;;;;;;;;;4422792;32;20346;-60
2021/04/06 05:55:10;;;;;;;108.23;66.27;;;;;;;;;;4434194;32;20552;-54
2021/04/06 05:57:35;;;;;;;129.03;76.17;;;;;;;;;;4433910;32;20264;-53
2021/04/06 06:00:04;;;;;;;112.20;68.70;;;;;;;;;;4434197;32;20324;-55
2021/04/06 06:02:30;;;;;;;114.47;70.07;;;;;;;;;;4433740;32;20217;-61
2021/04/06 06:04:56;;;;;;;120.10;71.57;;;;;;;;;;4433338;32;20204;-60
2021/04/06 06:07:22;;;;;;;111.10;70.00;;;;;;;;;;4434338;32;20266;-62
2021/04/06 06:09:47;;;;;;;108.30;66.63;;;;;;;;;;4433711;32;20279;-60
2021/04/06 06:12:17;;;;;;;108.37;62.73;;;;;;;;;;4433192;32;20311;-60
2021/04/06 06:14:51;;;;;;;101.07;60.50;;;;;;;;;;4434298;32;20189;-60
2021/04/06 06:17:24;;;;;;;92.93;57.37;;;;;;;;;;4434239;32;20208;-60
2021/04/06 06:19:52;;;;;;;73.40;49.43;;;;;;;;;;4434434;32;20542;-60
2021/04/06 06:22:21;;;;;;;83.93;50.47;;;;;;;;;;4434434;32;20244;-60
2021/04/06 06:25:00;;;;;;;96.43;60.00;;;;;;;;;;4434359;32;20213;-60
2021/04/06 06:27:51;;;;;;;102.17;59.17;;;;;;;;;;4434605;32;20208;-60
2021/04/06 06:30:36;;;;;;;70.07;44.27;;;;;;;;;;4434276;32;20295;-61
2021/04/06 06:33:19;;;;;;;66.03;43.43;;;;;;;;;;4433227;32;20348;-60
2021/04/06 06:35:50;;;;;;;55.77;34.80;;;;;;;;;;4434404;32;20328;-61
2021/04/06 06:38:24;;;;;;;27.27;20.20;;;;;;;;;;4432274;32;20216;-60
2021/04/06 06:40:53;;;;;;;28.00;19.53;;;;;;;;;;4434526;32;20234;-61
2021/04/06 06:43:21;;;;;;;30.93;21.53;;;;;;;;;;4434239;32;20251;-61
2021/04/06 06:45:49;;;;;;;27.10;18.23;;;;;;;;;;4433903;32;20231;-61
2021/04/06 06:48:28;;;;;;;27.87;20.93;;;;;;;;;;4434088;32;20314;-60
2021/04/06 06:50:55;;;;;;;34.00;23.10;;;;;;;;;;4434179;32;20271;-61
2021/04/06 06:53:38;;;;;;;41.07;22.00;;;;;;;;;;4434137;32;20213;-61
2021/04/06 06:56:08;;;;;;;34.13;20.37;;;;;;;;;;4434162;32;20308;-61
2021/04/06 06:58:36;;;;;;;27.33;18.83;;;;;;;;;;4433626;32;20728;-61
2021/04/06 07:01:03;;;;;;;25.63;16.40;;;;;;;;;;4433718;32;20361;-61
2021/04/06 07:03:29;;;;;;;24.50;16.47;;;;;;;;;;4433428;32;20266;-61
2021/04/06 07:05:55;;;;;;;23.53;15.13;;;;;;;;;;4433802;32;20272;-61
2021/04/06 07:08:34;;;;;;;21.33;15.97;;;;;;;;;;4433096;32;20362;-61
2021/04/06 07:11:01;;;;;;;21.23;15.10;;;;;;;;;;4432575;32;20248;-61
2021/04/06 07:13:31;;;;;;;19.80;13.30;;;;;;;;;;4433821;32;20255;-61
2021/04/06 07:15:58;;;;;;;16.87;12.57;;;;;;;;;;4433646;32;20235;-61
2021/04/06 07:18:26;;;;;;;21.87;13.50;;;;;;;;;;4433599;32;20368;-61
2021/04/06 07:20:58;;;;;;;20.97;13.60;;;;;;;;;;4433785;32;20259;-63
2021/04/06 07:23:44;;;;;;;18.87;14.47;;;;;;;;;;4433602;32;20371;-62
2021/04/06 07:26:12;;;;;;;25.33;15.33;;;;;;;;;;4433717;32;20269;-62
2021/04/06 07:28:40;;;;;;;21.73;13.67;;;;;;;;;;4433596;32;20214;-62
2021/04/06 07:31:06;;;;;;;22.80;13.47;;;;;;;;;;4433457;32;20539;-62
2021/04/06 07:33:32;;;;;;;19.77;14.37;;;;;;;;;;4433041;32;20212;-61
2021/04/06 07:36:07;;;;;;;18.47;13.50;;;;;;;;;;4433406;32;20268;-61
2021/04/06 07:38:35;;;;;;;16.37;11.30;;;;;;;;;;4433292;32;20234;-61
2021/04/06 07:41:02;;;;;;;25.20;15.23;;;;;;;;;;4433456;32;20236;-60
2021/04/06 07:43:28;;;;;;;21.67;15.47;;;;;;;;;;4432162;32;20265;-61
2021/04/06 07:45:54;;;;;;;21.83;14.60;;;;;;;;;;4433533;32;20275;-53
2021/04/06 07:48:40;;;;;;;32.27;16.40;;;;;;;;;;4431917;32;20255;-54
2021/04/06 07:51:22;;;;;;;29.00;18.00;;;;;;;;;;4432958;32;20200;-55
2021/04/06 07:54:01;;;;;;;32.53;19.53;;;;;;;;;;4432772;32;20324;-54
2021/04/06 07:56:57;;;;;;;36.20;21.10;;;;;;;;;;4432715;32;20580;-54
2021/04/06 07:59:23;;;;;;;28.10;19.20;;;;;;;;;;4417595;32;20648;-55
2021/04/06 08:01:54;;;;;;;31.90;19.70;;;;;;;;;;4417222;32;20220;-54
2021/04/06 08:04:27;;;;;;;39.50;20.90;;;;;;;;;;4417307;32;20213;-54
2021/04/06 08:06:54;;;;;;;40.77;20.87;;;;;;;;;;4416483;32;20225;-54
2021/04/06 08:09:32;;;;;;;26.60;18.63;;;;;;;;;;4417521;32;20198;-54
2021/04/06 08:12:10;;;;;;;34.10;18.73;;;;;;;;;;4417679;32;20220;-53
2021/04/06 08:14:38;;;;;;;29.93;19.10;;;;;;;;;;4417086;32;20201;-54
2021/04/06 08:17:28;;;;;;;34.20;18.63;;;;;;;;;;4417683;32;20247;-53
2021/04/06 08:20:14;;;;;;;25.80;17.67;;;;;;;;;;4432726;32;20727;-54
2021/04/06 08:22:43;;;;;;;23.23;17.93;;;;;;;;;;4424318;32;20658;-54
2021/04/06 08:25:25;;;;;;;36.43;19.00;;;;;;;;;;4432338;32;20271;-56
2021/04/06 08:28:17;;;;;;;27.07;19.37;;;;;;;;;;4432655;32;20216;-53
2021/04/06 08:30:42;;;;;;;29.40;16.47;;;;;;;;;;4430452;32;20301;-53
2021/04/06 08:33:08;;;;;;;27.10;17.17;;;;;;;;;;4432568;32;20428;-54
2021/04/06 08:35:49;;;;;;;25.30;15.90;;;;;;;;;;4432446;32;20697;-54
2021/04/06 08:38:28;;;;;;;23.37;16.00;;;;;;;;;;4431323;32;20312;-53
2021/04/06 08:40:58;;;;;;;28.13;16.97;;;;;;;;;;4433011;32;20679;-54
2021/04/06 08:43:39;;;;;;;24.40;15.63;;;;;;;;;;4432510;32;20337;-54
2021/04/06 08:46:09;;;;;;;26.17;15.60;;;;;;;;;;4432824;32;20354;-54
2021/04/06 08:48:47;;;;;;;21.80;15.13;;;;;;;;;;4432767;32;20687;-54
2021/04/06 08:51:41;;;;;;;22.83;13.83;;;;;;;;;;4432373;32;20200;-54
2021/04/06 08:54:19;;;;;;;23.87;14.80;;;;;;;;;;4432337;32;20200;-54
2021/04/06 08:56:49;;;;;;;23.23;12.43;;;;;;;;;;4432145;32;20335;-54
2021/04/06 08:59:35;;;;;;;27.77;12.70;;;;;;;;;;4432742;32;20652;-53
2021/04/06 09:02:15;;;;;;;20.20;11.03;;;;;;;;;;4431839;32;20409;-54
2021/04/06 09:04:44;;;;;;;21.93;11.23;;;;;;;;;;4434200;32;20217;-54
2021/04/06 09:07:28;;;;;;;17.30;11.00;;;;;;;;;;4434526;32;20538;-54
2021/04/06 09:10:00;;;;;;;15.47;10.37;;;;;;;;;;4434018;32;20613;-53
2021/04/06 09:12:26;;;;;;;16.50;12.90;;;;;;;;;;4435235;32;20395;-55
2021/04/06 09:14:52;;;;;;;17.93;9.33;;;;;;;;;;4446848;32;20248;-54
2021/04/06 09:17:18;;;;;;;18.77;9.67;;;;;;;;;;4435328;32;20209;-53
2021/04/06 09:19:46;;;;;;;21.83;7.97;;;;;;;;;;4433980;32;20424;-54
2021/04/06 09:22:15;;;;;;;17.70;9.90;;;;;;;;;;4435658;32;20554;-53
2021/04/06 09:24:42;;;;;;;14.50;7.40;;;;;;;;;;4435204;32;20669;-54
2021/04/06 09:27:08;;;;;;;14.77;7.77;;;;;;;;;;4433948;32;20724;-54
2021/04/06 09:29:37;;;;;;;13.60;8.50;;;;;;;;;;4434915;32;20256;-55
2021/04/06 09:32:06;;;;;;;16.47;6.80;;;;;;;;;;4433831;32;20225;-53
2021/04/06 09:34:34;;;;;;;22.50;13.33;;;;;;;;;;4434675;32;20197;-53
2021/04/06 09:37:03;;;;;;;13.80;5.03;;;;;;;;;;4434895;32;20221;-53
2021/04/06 09:39:29;;;;;;;18.23;6.50;;;;;;;;;;4434580;32;20259;-53
2021/04/06 09:41:56;;;;;;;10.53;5.03;;;;;;;;;;4434612;32;20361;-53
2021/04/06 09:44:24;;;;;;;16.63;6.97;;;;;;;;;;4434931;32;20208;-53
2021/04/06 09:46:59;;;;;;;13.13;7.13;;;;;;;;;;4433559;32;20220;-53
2021/04/06 09:49:35;;;;;;;13.90;8.43;;;;;;;;;;4434273;32;20263;-53
2021/04/06 09:52:18;;;;;;;14.37;7.37;;;;;;;;;;4432977;32;20343;-54
2021/04/06 09:54:55;;;;;;;12.30;5.90;;;;;;;;;;4434525;32;20208;-53
2021/04/06 09:57:24;;;;;;;22.50;13.47;;;;;;;;;;4434018;32;20247;-54
2021/04/06 09:59:55;;;;;;;15.27;7.83;;;;;;;;;;4434287;32;20250;-54
2021/04/06 10:02:23;;;;;;;22.40;7.93;;;;;;;;;;4434363;32;20638;-54
2021/04/06 10:04:50;;;;;;;11.33;5.67;;;;;;;;;;4432831;32;20303;-54
2021/04/06 10:07:26;;;;;;;39.30;20.10;;;;;;;;;;4433218;32;20531;-54
2021/04/06 10:10:00;;;;;;;28.37;16.97;;;;;;;;;;4433926;32;20192;-53
2021/04/06 10:12:28;;;;;;;24.87;8.50;;;;;;;;;;4434221;32;20229;-52
2021/04/06 10:14:54;;;;;;;10.93;5.43;;;;;;;;;;4433802;32;20295;-53
2021/04/06 10:17:22;;;;;;;14.80;7.47;;;;;;;;;;4433881;32;20213;-54
2021/04/06 10:20:01;;;;;;;18.57;4.87;;;;;;;;;;4434056;32;20373;-54
2021/04/06 10:22:38;;;;;;;12.20;4.63;;;;;;;;;;4432734;32;20241;-53
2021/04/06 10:25:05;;;;;;;13.40;5.40;;;;;;;;;;4434385;32;20350;-53
2021/04/06 10:27:58;;;;;;;27.70;14.97;;;;;;;;;;4432807;32;20233;-53
2021/04/06 10:30:36;;;;;;;42.87;19.03;;;;;;;;;;4430651;32;20675;-53
2021/04/06 10:33:08;;;;;;;33.17;14.93;;;;;;;;;;4433261;32;20311;-53
2021/04/06 10:35:38;;;;;;;19.63;7.97;;;;;;;;;;4434569;32;20319;-54
2021/04/06 10:38:05;;;;;;;12.87;6.37;;;;;;;;;;4433891;32;20566;-53
2021/04/06 10:40:32;;;;;;;11.00;4.97;;;;;;;;;;4434477;32;20201;-53
2021/04/06 10:43:05;;;;;;;15.57;7.20;;;;;;;;;;4433848;32;20213;-53
2021/04/06 10:45:33;;;;;;;18.33;4.73;;;;;;;;;;4433658;32;20208;-53
2021/04/06 10:48:20;;;;;;;18.50;9.77;;;;;;;;;;4434156;32;20279;-54
2021/04/06 10:50:50;;;;;;;8.90;6.00;;;;;;;;;;4434095;32;20201;-53
2021/04/06 10:53:18;;;;;;;18.50;9.07;;;;;;;;;;4433606;32;20262;-53
2021/04/06 10:55:44;;;;;;;10.23;5.20;;;;;;;;;;4433520;32;20344;-53
2021/04/06 10:58:10;;;;;;;23.17;7.10;;;;;;;;;;4433512;32;20300;-54
2021/04/06 11:00:38;;;;;;;17.37;7.73;;;;;;;;;;4433674;32;20283;-55
2021/04/06 11:03:09;;;;;;;23.40;9.70;;;;;;;;;;4433653;32;20229;-53
2021/04/06 11:05:35;;;;;;;14.20;5.30;;;;;;;;;;4433866;32;20200;-54
2021/04/06 11:08:21;;;;;;;12.87;5.93;;;;;;;;;;4433444;32;20228;-53
2021/04/06 11:10:48;;;;;;;17.60;5.60;;;;;;;;;;4433663;32;20648;-54
2021/04/06 11:13:14;;;;;;;13.87;5.77;;;;;;;;;;4433679;32;20284;-53
2021/04/06 11:15:41;;;;;;;20.63;5.70;;;;;;;;;;4433387;32;20314;-53
2021/04/06 11:18:07;;;;;;;16.93;4.67;;;;;;;;;;4433423;32;20213;-54
2021/04/06 11:20:33;;;;;;;12.90;4.90;;;;;;;;;;4433346;32;20386;-53
2021/04/06 11:22:58;;;;;;;12.77;5.53;;;;;;;;;;4433106;32;20399;-53
2021/04/06 11:25:24;;;;;;;5.63;4.07;;;;;;;;;;4431662;32;20341;-53
2021/04/06 11:27:51;;;;;;;11.33;5.10;;;;;;;;;;4433213;32;20363;-53
2021/04/06 11:30:17;;;;;;;11.57;4.00;;;;;;;;;;4433054;32;20201;-53
2021/04/06 11:32:42;;;;;;;13.57;4.87;;;;;;;;;;4433114;32;20243;-52
2021/04/06 11:35:08;;;;;;;20.15;5.30;;;;;;;;;;4433387;32;20268;-53
2021/04/06 11:37:34;;;;;;;18.27;5.23;;;;;;;;;;4433040;32;20327;-54
2021/04/06 11:39:59;;;;;;;16.73;4.05;;;;;;;;;;4433411;32;20276;-53
2021/04/06 11:42:26;;;;;;;11.00;5.10;;;;;;;;;;4432135;32;20220;-54
2021/04/06 11:44:52;;;;;;;5.95;4.75;;;;;;;;;;4431524;32;20247;-54
2021/04/06 11:47:17;;;;;;;10.32;4.43;;;;;;;;;;4433182;32;20213;-53
2021/04/06 11:49:43;;;;;;;12.45;5.40;;;;;;;;;;4433504;32;20359;-53
2021/04/06 11:52:09;;;;;;;11.15;5.55;;;;;;;;;;4433220;32;20339;-53
2021/04/06 11:54:35;;;;;;;9.18;6.10;;;;;;;;;;4433655;32;20285;-54
2021/04/06 11:57:02;;;;;;;12.70;5.32;;;;;;;;;;4432739;32;20615;-53
2021/04/06 11:59:29;;;;;;;9.55;4.20;;;;;;;;;;4432515;32;20201;-53
2021/04/06 12:01:56;;;;;;;11.93;4.32;;;;;;;;;;4433045;32;20682;-54
2021/04/06 12:04:21;;;;;;;12.77;4.65;;;;;;;;;;4432899;32;20262;-53
2021/04/06 12:06:47;;;;;;;12.63;4.90;;;;;;;;;;4431813;32;20233;-54
2021/04/06 12:09:13;;;;;;;10.95;5.50;;;;;;;;;;4432604;32;20685;-53
2021/04/06 12:11:39;;;;;;;10.73;5.35;;;;;;;;;;4431874;32;20225;-53
2021/04/06 12:14:06;;;;;;;15.40;7.12;;;;;;;;;;4433304;32;20295;-53
2021/04/06 12:16:31;;;;;;;27.02;15.40;;;;;;;;;;4431637;32;20288;-53
2021/04/06 12:18:57;;;;;;;12.60;6.05;;;;;;;;;;4420657;32;20302;-54
2021/04/06 12:21:22;;;;;;;16.62;6.12;;;;;;;;;;4417769;32;20313;-53
2021/04/06 12:23:49;;;;;;;12.93;5.10;;;;;;;;;;4417721;32;20374;-53
2021/04/06 12:26:14;;;;;;;8.82;4.47;;;;;;;;;;4417867;32;20284;-55
2021/04/06 12:28:40;;;;;;;11.68;4.53;;;;;;;;;;4416945;32;20221;-54
2021/04/06 12:31:05;;;;;;;13.05;4.07;;;;;;;;;;4417265;32;20268;-55
2021/04/06 12:33:34;;;;;;;10.63;4.12;;;;;;;;;;4417374;32;20213;-54
2021/04/06 12:36:00;;;;;;;18.70;4.40;;;;;;;;;;4416780;32;20573;-54
2021/04/06 12:38:26;;;;;;;10.85;4.53;;;;;;;;;;4416713;32;20289;-54
2021/04/06 12:40:52;;;;;;;11.52;4.12;;;;;;;;;;4417694;32;20315;-55
2021/04/06 12:43:18;;;;;;;11.30;4.75;;;;;;;;;;4416031;32;20232;-53
2021/04/06 12:45:43;;;;;;;11.23;4.40;;;;;;;;;;4415835;32;20685;-53
2021/04/06 12:48:10;;;;;;;7.35;3.78;;;;;;;;;;4417970;32;20708;-53
2021/04/06 12:50:36;;;;;;;9.18;3.45;;;;;;;;;;4416368;32;20264;-53
2021/04/06 12:53:01;;;;;;;12.70;7.05;;;;;;;;;;4417495;32;20224;-53
2021/04/06 12:55:28;;;;;;;14.80;4.07;;;;;;;;;;4417804;32;20280;-53
2021/04/06 12:57:54;;;;;;;12.48;3.90;;;;;;;;;;4425008;32;20339;-53
2021/04/06 13:00:21;;;;;;;5.97;3.58;;;;;;;;;;4432978;32;20288;-54
2021/04/06 13:02:46;;;;;;;7.93;3.10;;;;;;;;;;4432781;32;20300;-58
2021/04/06 13:05:13;;;;;;;15.68;3.17;;;;;;;;;;4432604;32;20527;-58
2021/04/06 13:07:39;;;;;;;9.25;4.12;;;;;;;;;;4431942;32;20228;-58
2021/04/06 13:10:05;;;;;;;10.02;3.85;;;;;;;;;;4433147;32;20322;-58
2021/04/06 13:12:31;;;;;;;12.15;3.47;;;;;;;;;;4432745;32;20629;-58
2021/04/06 13:14:56;;;;;;;11.10;5.05;;;;;;;;;;4433242;32;20301;-58
2021/04/06 13:17:22;;;;;;;7.22;3.12;;;;;;;;;;4430876;32;20558;-54
2021/04/06 13:19:47;;;;;;;9.23;3.28;;;;;;;;;;4417987;32;20280;-54
2021/04/06 13:22:13;;;;;;;12.95;4.40;;;;;;;;;;4417671;32;20374;-53
2021/04/06 13:24:39;;;;;;;12.00;4.15;;;;;;;;;;4418052;32;20393;-54
2021/04/06 13:27:06;;;;;;;9.00;3.37;;;;;;;;;;4417526;32;20323;-54
2021/04/06 13:29:31;;;;;;;13.20;4.93;;;;;;;;;;4416367;32;20559;-53
2021/04/06 13:31:57;;;;;;;11.43;2.90;;;;;;;;;;4416236;32;20266;-53
2021/04/06 13:34:24;;;;;;;7.05;3.85;;;;;;;;;;4416148;32;20743;-59
2021/04/06 13:36:52;;;;;;;4.80;2.90;;;;;;;;;;4417346;32;20245;-57
2021/04/06 13:39:18;;;;;;;7.85;3.85;;;;;;;;;;4417606;32;20211;-58
2021/04/06 13:41:44;;;;;;;12.70;4.35;;;;;;;;;;4417265;32;20425;-57
2021/04/06 13:44:09;;;;;;;9.00;4.70;;;;;;;;;;4417423;32;20298;-58
2021/04/06 13:46:35;;;;;;;10.43;4.97;;;;;;;;;;4417178;32;20725;-58
2021/04/06 13:49:01;;;;;;;9.32;4.45;;;;;;;;;;4419167;32;20333;-58
2021/04/06 13:51:27;;;;;;;14.65;5.90;;;;;;;;;;4419788;32;20543;-58
2021/04/06 13:53:52;;;;;;;21.08;6.85;;;;;;;;;;4420140;32;20307;-58
2021/04/06 13:56:19;;;;;;;12.95;4.65;;;;;;;;;;4420044;32;20283;-58
2021/04/06 13:58:45;;;;;;;12.50;4.55;;;;;;;;;;4432727;32;20907;-58
2021/04/06 14:01:10;;;;;;;10.60;2.58;;;;;;;;;;4435093;32;20363;-58
2021/04/06 14:03:36;;;;;;;9.75;4.55;;;;;;;;;;4434758;32;20653;-58
2021/04/06 14:06:02;;;;;;;13.00;4.85;;;;;;;;;;4434949;32;20298;-58
2021/04/06 14:08:28;;;;;;;13.85;6.05;;;;;;;;;;4435195;32;20246;-58
2021/04/06 14:10:54;;;;;;;12.23;5.37;;;;;;;;;;4435072;32;20339;-58
2021/04/06 14:13:20;;;;;;;5.40;3.45;;;;;;;;;;4435198;32;20557;-58
2021/04/06 14:15:46;;;;;;;13.23;3.58;;;;;;;;;;4434898;32;20561;-58
2021/04/06 14:18:13;;;;;;;16.92;3.58;;;;;;;;;;4427490;32;20304;-58
2021/04/06 14:20:40;;;;;;;11.57;4.60;;;;;;;;;;4419470;32;20224;-58
2021/04/06 14:23:09;;;;;;;6.60;3.50;;;;;;;;;;4419345;32;20226;-58
2021/04/06 14:25:34;;;;;;;13.85;6.95;;;;;;;;;;4418135;32;20284;-59
2021/04/06 14:28:00;;;;;;;14.02;4.28;;;;;;;;;;4419507;32;20220;-58
2021/04/06 14:30:33;;;;;;;9.98;5.55;;;;;;;;;;4443428;26;20244;-83
2021/04/06 14:33:00;;;;;;;17.08;4.60;;;;;;;;;;4432732;32;20232;-82
2021/04/06 14:35:30;;;;;;;5.30;3.00;;;;;;;;;;4437273;32;20213;-81